Time;durP1;ratioP1;P1;durP2;ratioP2;P2;SDS_P1;SDS_P2;PMS_P1;PMS_P2;Temp;Humidity;BMP_temperature;BMP_pressure;BME280_temperature;BME280_humidity;BME280_pressure;Samples;Min_cycle;Max_cycle;Signal;HPM_P1;HPM_P2
2022/10/08 00:01:36;;;;;;;;;;;12.00;79.10;;;-151.14;100.00;62537.16;5052443;28;19946;-83
2022/10/08 00:04:04;;;;;;;;;;;12.00;79.20;;;-151.14;100.00;62537.16;5051860;28;19925;-83
2022/10/08 00:06:32;;;;;;;;;;;12.00;79.20;;;-151.14;100.00;62537.16;5051297;28;19921;-82
2022/10/08 00:09:02;;;;;;;;;;;12.00;79.10;;;-151.14;100.00;62537.16;5051215;28;19927;-82
2022/10/08 00:11:31;;;;;;;;;;;12.00;79.10;;;-151.14;100.00;62537.16;5052238;28;19927;-83
2022/10/08 00:14:00;;;;;;;;;;;12.00;79.10;;;-151.14;100.00;62537.16;5067257;28;19921;-82
2022/10/08 00:16:29;;;;;;;;;;;11.90;79.20;;;-151.14;100.00;62537.16;5034525;28;19927;-83
2022/10/08 00:18:58;;;;;;;;;;;12.00;79.20;;;-151.14;100.00;62537.16;5051266;28;19921;-82
2022/10/08 00:21:28;;;;;;;;;;;12.00;79.30;;;10.96;100.00;62537.16;5034399;28;19921;-83
2022/10/08 00:23:57;;;;;;;;;;;12.00;79.20;;;-151.14;100.00;62537.16;5033970;28;19927;-83
2022/10/08 00:26:27;;;;;;;;;;;12.00;79.20;;;-151.14;100.00;62537.16;5067779;28;19920;-83
2022/10/08 00:28:55;;;;;;;;;;;12.00;79.20;;;12.78;100.00;62537.16;5051086;28;19921;-82
2022/10/08 00:31:24;;;;;;;;;;;12.00;79.30;;;-151.14;100.00;62537.16;5034257;28;19921;-83
2022/10/08 00:33:53;;;;;;;;;;;11.90;79.40;;;-151.14;100.00;62537.16;5033599;28;19943;-82
2022/10/08 00:36:22;;;;;;;;;;;11.90;79.20;;;-151.14;100.00;62537.16;5051942;28;19921;-82
2022/10/08 00:38:54;;;;;;;;;;;11.90;79.20;;;18.08;100.00;62537.16;5052050;28;19921;-82
2022/10/08 00:41:23;;;;;;;;;;;11.90;79.40;;;18.08;100.00;62537.16;5050825;28;19921;-82
2022/10/08 00:43:53;;;;;;;;;;;11.90;79.30;;;-151.14;100.00;62537.16;5051509;28;19921;-82
2022/10/08 00:46:24;;;;;;;;;;;11.90;79.40;;;-151.14;100.00;62537.16;5050688;28;19921;-82
2022/10/08 00:48:55;;;;;;;;;;;11.90;79.40;;;-151.14;100.00;62537.16;5052177;28;19920;-82
2022/10/08 00:51:24;;;;;;;;;;;11.90;79.30;;;-151.14;100.00;62537.16;5050755;28;20094;-82
2022/10/08 00:53:52;;;;;;;;;;;11.90;79.30;;;-151.14;100.00;62537.16;5051348;28;20112;-82
2022/10/08 00:56:20;;;;;;;;;;;11.90;79.30;;;-151.14;100.00;62537.16;5040865;28;20473;-83
2022/10/08 00:58:48;;;;;;;;;;;11.90;79.30;;;-151.14;100.00;62537.16;5047237;28;20212;-83
2022/10/08 01:01:18;;;;;;;;;;;11.90;79.40;;;-151.14;100.00;62537.16;5031752;28;19921;-82
2022/10/08 01:03:46;;;;;;;;;;;11.90;79.40;;;-151.14;100.00;62537.16;5013664;28;20250;-83
2022/10/08 01:06:20;;;;;;;;;;;11.90;79.30;;;-151.14;100.00;62537.16;5037857;28;20252;-83
2022/10/08 01:08:53;;;;;;;;;;;11.90;79.30;;;-151.14;100.00;62537.16;5050401;28;19921;-82
2022/10/08 01:11:28;;;;;;;;;;;11.90;79.40;;;-151.14;100.00;62537.16;5051426;28;19921;-83
2022/10/08 01:13:59;;;;;;;;;;;11.90;79.30;;;-151.14;100.00;62537.16;5050994;28;20132;-82
2022/10/08 01:16:32;;;;;;;;;;;11.90;79.30;;;-151.14;100.00;62537.16;5050238;28;19976;-82
2022/10/08 01:19:06;;;;;;;;;;;11.90;79.40;;;-151.14;100.00;62537.16;5051464;28;19940;-82
2022/10/08 01:21:37;;;;;;;;;;;11.90;80.20;;;-151.14;100.00;62537.16;5050176;28;19921;-83
2022/10/08 01:24:16;;;;;;;;;;;11.90;79.40;;;-151.14;100.00;62537.16;5049835;28;20220;-82
2022/10/08 01:26:55;;;;;;;;;;;11.90;79.40;;;-151.14;100.00;62537.16;5050048;28;20460;-82
2022/10/08 01:29:26;;;;;;;;;;;11.90;80.30;;;-151.14;100.00;62537.16;5050641;28;19920;-83
2022/10/08 01:31:55;;;;;;;;;;;11.90;79.40;;;18.08;100.00;62537.16;5051207;28;19921;-82
2022/10/08 01:34:25;;;;;;;;;;;11.90;79.40;;;-151.14;100.00;62537.16;5049693;28;19921;-82
2022/10/08 01:36:54;;;;;;;;;;;11.90;79.40;;;-151.14;100.00;62537.16;5051122;28;19974;-82
2022/10/08 01:39:22;;;;;;;;;;;11.90;79.40;;;-151.14;100.00;62537.16;5051198;28;19921;-82
2022/10/08 01:41:52;;;;;;;;;;;11.90;79.40;;;-151.14;100.00;62537.16;5033231;28;20124;-83
2022/10/08 01:44:23;;;;;;;;;;;11.80;79.30;;;-151.14;100.00;62537.16;5049314;28;20062;-83
2022/10/08 01:46:52;;;;;;;;;;;11.90;79.40;;;-151.14;100.00;62537.16;5049861;28;19927;-83
2022/10/08 01:49:22;;;;;;;;;;;11.90;79.50;;;-151.14;100.00;62537.16;5033424;28;20070;-82
2022/10/08 01:51:52;;;;;;;;;;;11.90;79.50;;;-151.14;100.00;62537.16;5033152;28;19921;-82
2022/10/08 01:54:20;;;;;;;;;;;11.80;79.20;;;-151.14;100.00;62537.16;5049258;28;19987;-82
2022/10/08 01:56:48;;;;;;;;;;;11.80;79.30;;;11.46;100.00;62537.16;5049648;28;20125;-83
2022/10/08 01:59:18;;;;;;;;;;;11.90;79.50;;;-151.14;100.00;62537.16;5050969;28;19921;-82
2022/10/08 02:01:53;;;;;;;;;;;11.90;79.40;;;-151.14;100.00;62537.16;5033109;28;19921;-82
2022/10/08 02:04:33;;;;;;;;;;;11.80;79.20;;;-151.14;100.00;62537.16;5049197;28;19921;-83
2022/10/08 02:07:03;;;;;;;;;;;11.80;79.30;;;-151.14;100.00;62537.16;5032848;28;19921;-82
2022/10/08 02:09:34;;;;;;;;;;;11.80;79.40;;;-151.14;100.00;62537.16;5051181;28;20123;-82
2022/10/08 02:12:02;;;;;;;;;;;11.80;79.40;;;-151.14;100.00;62537.16;5066080;28;19921;-82
2022/10/08 02:14:30;;;;;;;;;;;11.80;79.30;;;-151.14;100.00;62537.16;5065757;28;19921;-82
2022/10/08 02:17:03;;;;;;;;;;;11.80;79.50;;;18.08;100.00;62537.16;5050614;28;19920;-83
2022/10/08 02:19:37;;;;;;;;;;;11.80;79.30;;;-151.14;100.00;62537.16;5049493;28;19921;-82
2022/10/08 02:22:05;;;;;;;;;;;11.80;79.40;;;-151.14;100.00;62537.16;5049572;28;19927;-82
2022/10/08 02:24:35;;;;;;;;;;;11.80;79.40;;;-151.14;100.00;62537.16;5047640;28;19934;-82
2022/10/08 02:27:03;;;;;;;;;;;11.80;79.30;;;-151.14;100.00;62537.16;5045561;28;19921;-82
2022/10/08 02:29:34;;;;;;;;;;;11.80;79.30;;;-151.14;100.00;62537.16;5029455;28;19928;-83
2022/10/08 02:32:06;;;;;;;;;;;11.80;79.30;;;-151.14;100.00;62537.16;5029812;28;19986;-82
2022/10/08 02:34:36;;;;;;;;;;;11.80;79.20;;;-151.14;100.00;62537.16;5028865;28;19928;-82
2022/10/08 02:37:08;;;;;;;;;;;11.80;79.30;;;-151.14;100.00;62537.16;5030549;28;19921;-82
2022/10/08 02:39:37;;;;;;;;;;;11.80;79.40;;;-151.14;100.00;62537.16;5030675;28;19921;-82
2022/10/08 02:42:06;;;;;;;;;;;11.80;79.40;;;-151.14;100.00;62537.16;5049239;28;19921;-82
2022/10/08 02:44:36;;;;;;;;;;;11.80;79.40;;;-151.14;100.00;62537.16;5032300;28;19921;-83
2022/10/08 02:47:07;;;;;;;;;;;11.80;79.40;;;-151.14;100.00;62537.16;5016226;28;20116;-82
2022/10/08 02:49:37;;;;;;;;;;;11.80;79.40;;;-151.14;100.00;62537.16;5033797;28;19925;-82
2022/10/08 02:52:05;;;;;;;;;;;11.80;79.50;;;-151.14;100.00;62537.16;5033805;28;20119;-82
2022/10/08 02:54:35;;;;;;;;;;;11.80;79.40;;;-151.14;100.00;62537.16;5032200;28;19921;-83
2022/10/08 02:57:05;;;;;;;;;;;11.80;79.50;;;-151.14;100.00;62537.16;5032427;28;19921;-82
2022/10/08 02:59:33;;;;;;;;;;;11.80;79.60;;;-151.14;100.00;62537.16;5033651;28;19928;-83
2022/10/08 03:02:02;;;;;;;;;;;11.80;79.50;;;-151.14;100.00;62537.16;5016028;28;19927;-82
2022/10/08 03:04:32;;;;;;;;;;;11.80;79.60;;;-151.14;100.00;62537.16;5032047;28;20121;-82
2022/10/08 03:07:00;;;;;;;;;;;11.80;79.60;;;-151.14;100.00;62537.16;5033623;28;19927;-82
2022/10/08 03:09:29;;;;;;;;;;;11.80;79.60;;;-151.14;100.00;62537.16;5033622;28;20120;-82
2022/10/08 03:11:57;;;;;;;;;;;11.80;79.50;;;10.79;100.00;62537.16;5032285;28;20144;-82
2022/10/08 03:14:25;;;;;;;;;;;11.80;80.40;;;10.79;100.00;62537.16;5031707;28;19929;-82
2022/10/08 03:16:54;;;;;;;;;;;11.80;79.60;;;10.79;100.00;82606.50;5032333;28;19927;-82
2022/10/08 03:19:22;;;;;;;;;;;11.80;79.50;;;10.81;100.00;62537.16;5032160;28;20119;-83
2022/10/08 03:21:52;;;;;;;;;;;11.80;80.40;;;-151.14;100.00;62537.16;5033429;28;20227;-83
2022/10/08 03:24:20;;;;;;;;;;;11.80;79.60;;;-151.14;100.00;62537.16;5032716;28;19927;-83
2022/10/08 03:26:48;;;;;;;;;;;11.80;79.60;;;10.76;100.00;62537.16;5033331;28;19921;-83
2022/10/08 03:29:16;;;;;;;;;;;11.80;79.40;;;10.76;100.00;62537.16;5033102;28;19921;-83
2022/10/08 03:31:44;;;;;;;;;;;11.80;79.60;;;10.76;100.00;62537.16;5033176;28;19928;-83
2022/10/08 03:34:12;;;;;;;;;;;11.80;79.60;;;10.76;100.00;62537.16;5032523;28;19925;-83
2022/10/08 03:36:40;;;;;;;;;;;11.80;79.50;;;10.76;100.00;62537.16;5032958;28;19928;-83
2022/10/08 03:39:10;;;;;;;;;;;11.80;79.60;;;10.76;100.00;62537.16;5033036;28;19922;-83
2022/10/08 03:41:38;;;;;;;;;;;11.80;79.60;;;-151.14;100.00;62537.16;5031802;28;19935;-83
2022/10/08 03:44:07;;;;;;;;;;;11.80;79.50;;;10.78;100.00;62537.16;5014885;28;19922;-83
2022/10/08 03:46:35;;;;;;;;;;;11.70;79.50;;;10.78;100.00;62537.16;5032871;28;19922;-83
2022/10/08 03:49:03;;;;;;;;;;;11.70;79.60;;;10.78;100.00;62537.16;5033084;28;19922;-83
2022/10/08 03:51:31;;;;;;;;;;;11.70;79.60;;;10.78;100.00;62537.16;5031199;28;19922;-83
2022/10/08 03:53:59;;;;;;;;;;;11.70;79.60;;;10.78;100.00;62537.16;5031313;28;20112;-83
2022/10/08 03:56:28;;;;;;;;;;;11.70;79.70;;;10.78;100.00;82603.34;5032686;28;19927;-83
2022/10/08 03:58:57;;;;;;;;;;;11.70;79.70;;;-151.14;100.00;62537.16;5032743;28;20204;-83
2022/10/08 04:01:26;;;;;;;;;;;11.70;79.60;;;-151.14;100.00;62537.16;5032735;28;19921;-83
2022/10/08 04:03:54;;;;;;;;;;;11.70;79.60;;;-151.14;100.00;62537.16;5031028;28;19921;-83
2022/10/08 04:06:22;;;;;;;;;;;11.70;79.70;;;10.74;100.00;62537.16;5032669;28;19929;-83
2022/10/08 04:08:50;;;;;;;;;;;11.70;79.60;;;10.74;100.00;96961.03;5032637;28;19928;-83
2022/10/08 04:11:18;;;;;;;;;;;11.70;79.70;;;10.74;100.00;82599.09;5032525;28;19921;-83
2022/10/08 04:13:47;;;;;;;;;;;11.70;79.80;;;-151.14;100.00;62537.16;5030850;28;19921;-83
2022/10/08 04:16:16;;;;;;;;;;;11.70;79.70;;;10.73;100.00;62537.16;5031341;28;20235;-83
2022/10/08 04:18:44;;;;;;;;;;;11.70;79.60;;;10.73;100.00;82697.06;5032511;28;20114;-83
2022/10/08 04:21:13;;;;;;;;;;;11.70;79.70;;;-151.14;100.00;62537.16;5032257;28;20234;-83
2022/10/08 04:23:41;;;;;;;;;;;11.70;79.70;;;10.72;100.00;62537.16;5030757;28;19921;-83
2022/10/08 04:26:10;;;;;;;;;;;11.70;79.80;;;-151.14;100.00;62537.16;5031166;28;19927;-83
2022/10/08 04:28:38;;;;;;;;;;;11.70;79.90;;;10.72;100.00;82596.25;5031321;28;19921;-83
2022/10/08 04:31:09;;;;;;;;;;;11.70;79.90;;;-151.14;100.00;62537.16;5031184;28;19928;-83
2022/10/08 04:33:37;;;;;;;;;;;11.70;79.90;;;-151.14;100.00;62537.16;5031582;28;19921;-83
2022/10/08 04:36:07;;;;;;;;;;;11.70;80.00;;;-151.14;100.00;62537.16;5031040;28;20106;-83
2022/10/08 04:38:35;;;;;;;;;;;11.70;80.00;;;-151.14;100.00;62537.16;5032121;28;19936;-83
2022/10/08 04:41:04;;;;;;;;;;;11.70;79.90;;;-151.14;100.00;62537.16;5030807;28;19921;-83
2022/10/08 04:43:33;;;;;;;;;;;11.70;79.70;;;10.69;100.00;62537.16;5030254;28;19951;-83
2022/10/08 04:46:01;;;;;;;;;;;11.70;79.70;;;10.69;100.00;62537.16;5047571;28;19921;-83
2022/10/08 04:48:30;;;;;;;;;;;11.70;79.90;;;10.69;100.00;62537.16;5031909;28;19921;-83
2022/10/08 04:50:58;;;;;;;;;;;11.70;79.90;;;10.69;100.00;82606.50;5030795;28;19921;-83
2022/10/08 04:53:26;;;;;;;;;;;11.70;79.90;;;-151.14;100.00;62537.16;5030199;28;19921;-83
2022/10/08 04:55:54;;;;;;;;;;;11.70;79.80;;;-151.14;100.00;62537.16;5030758;28;19927;-83
2022/10/08 04:58:23;;;;;;;;;;;11.70;79.90;;;-151.14;100.00;62537.16;5031850;28;19921;-83
2022/10/08 05:00:51;;;;;;;;;;;11.70;79.90;;;10.70;100.00;62537.16;5014254;28;19921;-83
2022/10/08 05:03:19;;;;;;;;;;;11.70;79.90;;;-151.14;100.00;62537.16;5029338;28;20366;-83
2022/10/08 05:05:49;;;;;;;;;;;11.70;79.80;;;-151.14;100.00;62537.16;5031839;28;19921;-83
2022/10/08 05:08:17;;;;;;;;;;;11.70;79.80;;;10.67;100.00;62537.16;5030636;28;19943;-83
2022/10/08 05:10:48;;;;;;;;;;;11.70;79.70;;;10.67;100.00;82878.38;5030649;28;19929;-83
2022/10/08 05:13:16;;;;;;;;;;;11.70;79.90;;;-151.14;100.00;62537.16;5031140;28;19927;-83
2022/10/08 05:15:44;;;;;;;;;;;11.70;79.80;;;-151.14;100.00;62537.16;5031546;28;19921;-83
2022/10/08 05:18:12;;;;;;;;;;;11.70;79.80;;;10.69;100.00;62537.16;5030262;28;19925;-83
2022/10/08 05:20:40;;;;;;;;;;;11.70;79.90;;;10.69;100.00;62537.16;5031320;28;20122;-83
2022/10/08 05:23:10;;;;;;;;;;;11.70;79.90;;;10.69;100.00;62537.16;5030314;28;19921;-83
2022/10/08 05:25:38;;;;;;;;;;;11.70;79.90;;;10.69;100.00;62537.16;5029962;28;19921;-83
2022/10/08 05:28:06;;;;;;;;;;;11.70;79.70;;;10.69;100.00;62537.16;5013963;28;19928;-83
2022/10/08 05:30:34;;;;;;;;;;;11.70;79.70;;;10.69;100.00;62537.16;5031342;28;19921;-83
2022/10/08 05:33:02;;;;;;;;;;;11.70;79.70;;;10.69;100.00;62537.16;5030443;28;19928;-83
2022/10/08 05:35:30;;;;;;;;;;;11.70;79.70;;;10.70;100.00;62537.16;5029780;28;19922;-83
2022/10/08 05:37:58;;;;;;;;;;;11.70;79.50;;;-151.14;100.00;62537.16;5013739;28;20205;-83
2022/10/08 05:40:28;;;;;;;;;;;11.80;79.60;;;-151.14;100.00;62537.16;5030332;28;19921;-83
2022/10/08 05:42:56;;;;;;;;;;;11.80;79.50;;;-151.14;100.00;62537.16;5031250;28;19929;-83
2022/10/08 05:45:24;;;;;;;;;;;11.80;79.40;;;10.80;100.00;62537.16;5034386;28;19927;-83
2022/10/08 05:47:52;;;;;;;;;;;11.80;79.40;;;10.80;100.00;62537.16;5033392;28;19920;-83
2022/10/08 05:50:20;;;;;;;;;;;11.80;79.40;;;10.80;100.00;62537.16;5049755;28;19921;-83
2022/10/08 05:52:48;;;;;;;;;;;11.80;79.20;;;10.80;100.00;62537.16;5033256;28;19921;-83
2022/10/08 05:55:16;;;;;;;;;;;11.80;79.10;;;10.80;100.00;96911.44;5049324;28;19920;-83
2022/10/08 05:57:46;;;;;;;;;;;11.90;79.10;;;-151.14;100.00;62537.16;5049885;28;19927;-83
2022/10/08 06:00:15;;;;;;;;;;;11.80;78.80;;;-151.14;100.00;62537.16;5050849;28;19933;-83
2022/10/08 06:02:43;;;;;;;;;;;11.90;78.80;;;-151.14;100.00;62537.16;5066374;28;20219;-83
2022/10/08 06:05:11;;;;;;;;;;;11.90;78.70;;;-151.14;100.00;62537.16;5049261;28;19921;-83
2022/10/08 06:07:39;;;;;;;;;;;11.90;78.60;;;-151.14;100.00;62537.16;5050735;28;19921;-83
2022/10/08 06:10:08;;;;;;;;;;;11.90;78.30;;;12.78;100.00;62537.16;5033015;28;19920;-83
2022/10/08 06:12:36;;;;;;;;;;;12.00;78.10;;;-151.14;100.00;62537.16;5049594;28;20116;-83
2022/10/08 06:15:06;;;;;;;;;;;12.00;77.80;;;-151.14;100.00;62537.16;5052046;28;19927;-83
2022/10/08 06:17:34;;;;;;;;;;;12.00;78.40;;;-151.14;100.00;62537.16;5069668;28;19931;-83
2022/10/08 06:20:02;;;;;;;;;;;12.10;77.40;;;-151.14;100.00;62537.16;5053997;28;19921;-83
2022/10/08 06:22:30;;;;;;;;;;;12.10;77.20;;;-151.14;100.00;62537.16;5036450;28;19920;-83
2022/10/08 06:24:58;;;;;;;;;;;12.10;77.10;;;-151.14;100.00;62537.16;5053515;28;19920;-83
2022/10/08 06:27:27;;;;;;;;;;;12.10;76.90;;;12.78;100.00;62537.16;5064762;28;19927;-84
2022/10/08 06:29:55;;;;;;;;;;;12.20;76.80;;;187.61;100.00;62537.16;5053921;28;19935;-83
2022/10/08 06:32:25;;;;;;;;;;;12.20;76.70;;;-151.14;100.00;62537.16;5053937;28;19920;-83
2022/10/08 06:34:53;;;;;;;;;;;12.30;76.80;;;-151.14;100.00;62537.16;5035694;28;20121;-83
2022/10/08 06:37:21;;;;;;;;;;;12.30;77.00;;;-151.14;100.00;62537.16;5053782;28;19921;-83
2022/10/08 06:39:49;;;;;;;;;;;12.30;77.30;;;-151.14;100.00;62537.16;5053838;28;19920;-83
2022/10/08 06:42:17;;;;;;;;;;;12.30;77.60;;;18.08;100.00;62537.16;5053850;28;19927;-83
2022/10/08 06:44:45;;;;;;;;;;;12.30;77.70;;;11.46;100.00;62537.16;5035386;28;19943;-83
2022/10/08 06:47:13;;;;;;;;;;;12.40;78.50;;;12.78;100.00;62537.16;5052584;28;20209;-83
2022/10/08 06:49:42;;;;;;;;;;;12.40;77.90;;;11.46;100.00;62537.16;5035899;28;19921;-83
2022/10/08 06:52:11;;;;;;;;;;;12.40;78.00;;;11.46;100.00;62537.16;5053641;28;19950;-83
2022/10/08 06:54:39;;;;;;;;;;;12.40;78.00;;;11.46;100.00;62537.16;5051997;28;19927;-83
2022/10/08 06:57:07;;;;;;;;;;;12.40;78.00;;;-151.14;100.00;62537.16;5053707;28;19921;-83
2022/10/08 06:59:35;;;;;;;;;;;12.50;78.10;;;-151.14;100.00;62537.16;5053404;28;19921;-83
2022/10/08 07:02:03;;;;;;;;;;;12.50;77.90;;;-151.14;100.00;62537.16;5052360;28;20209;-83
2022/10/08 07:04:31;;;;;;;;;;;12.60;78.00;;;-151.14;100.00;62537.16;5051761;28;19920;-83
2022/10/08 07:07:00;;;;;;;;;;;12.60;77.90;;;-151.14;100.00;62537.16;5051892;28;19921;-83
2022/10/08 07:09:28;;;;;;;;;;;12.60;77.90;;;-151.14;100.00;62537.16;5052178;28;20094;-83
2022/10/08 07:11:56;;;;;;;;;;;12.70;77.90;;;-151.14;100.00;62537.16;5035543;28;19956;-84
2022/10/08 07:14:24;;;;;;;;;;;12.70;77.90;;;-151.14;100.00;62537.16;5051707;28;20117;-83
2022/10/08 07:16:52;;;;;;;;;;;12.70;77.80;;;-151.14;100.00;62537.16;5052163;28;19927;-83
2022/10/08 07:19:20;;;;;;;;;;;12.80;77.70;;;-151.14;100.00;62537.16;5052115;28;19921;-83
2022/10/08 07:21:48;;;;;;;;;;;12.80;77.60;;;-151.14;100.00;62537.16;5051871;28;19927;-83
2022/10/08 07:24:18;;;;;;;;;;;12.80;77.50;;;-151.14;100.00;62537.16;5051205;28;20123;-83
2022/10/08 07:26:46;;;;;;;;;;;12.80;77.40;;;-151.14;100.00;62537.16;5051364;28;19920;-83
2022/10/08 07:29:15;;;;;;;;;;;12.90;77.40;;;-151.14;100.00;62537.16;5035228;28;19921;-83
2022/10/08 07:31:43;;;;;;;;;;;12.90;77.20;;;-151.14;100.00;62537.16;5051849;28;19927;-83
2022/10/08 07:34:12;;;;;;;;;;;12.90;77.10;;;-151.14;100.00;62537.16;5051296;28;19921;-84
2022/10/08 07:36:40;;;;;;;;;;;13.00;77.00;;;-151.14;100.00;62537.16;5068731;28;19921;-83
2022/10/08 07:39:08;;;;;;;;;;;13.00;76.90;;;-151.14;100.00;62537.16;5051761;28;19921;-83
2022/10/08 07:41:38;;;;;;;;;;;13.00;76.80;;;-151.14;100.00;62537.16;5053004;28;19921;-84
2022/10/08 07:44:06;;;;;;;;;;;13.10;76.70;;;-151.14;100.00;62537.16;5034556;28;19950;-83
2022/10/08 07:46:35;;;;;;;;;;;13.10;76.60;;;-151.14;100.00;62537.16;5051854;28;19921;-84
2022/10/08 07:49:03;;;;;;;;;;;13.10;76.60;;;-151.14;100.00;62537.16;5034964;28;19921;-84
2022/10/08 07:51:32;;;;;;;;;;;13.10;76.40;;;-151.14;100.00;62537.16;5051595;28;20213;-84
2022/10/08 07:54:00;;;;;;;;;;;13.10;76.40;;;-151.14;100.00;62537.16;5052164;28;20120;-83
2022/10/08 07:56:28;;;;;;;;;;;13.10;76.30;;;-151.14;100.00;62537.16;5052743;28;19936;-84
2022/10/08 07:58:58;;;;;;;;;;;13.10;76.30;;;-151.14;100.00;62537.16;5051299;28;19921;-84
2022/10/08 08:01:28;;;;;;;;;;;13.10;76.20;;;-151.14;100.00;62537.16;5051336;28;19943;-84
2022/10/08 08:03:57;;;;;;;;;;;13.20;76.20;;;-151.14;100.00;62537.16;5050902;28;20312;-84
2022/10/08 08:06:25;;;;;;;;;;;13.20;76.10;;;-151.14;100.00;62537.16;5035126;28;19943;-84
2022/10/08 08:08:53;;;;;;;;;;;13.20;76.10;;;-151.14;100.00;62537.16;5051329;28;19920;-84
2022/10/08 08:11:22;;;;;;;;;;;13.20;76.10;;;-151.14;100.00;62537.16;5051284;28;20227;-84
2022/10/08 08:13:50;;;;;;;;;;;13.20;76.00;;;-151.14;100.00;62537.16;5034114;28;19927;-84
2022/10/08 08:16:20;;;;;;;;;;;13.20;76.10;;;-151.14;100.00;62537.16;5052441;28;20114;-83
2022/10/08 08:18:49;;;;;;;;;;;13.20;76.00;;;-151.14;100.00;62537.16;5050997;28;19921;-83
2022/10/08 08:21:18;;;;;;;;;;;13.20;76.00;;;-151.14;100.00;62537.16;5051018;28;19931;-84
2022/10/08 08:23:47;;;;;;;;;;;13.20;76.10;;;-151.14;100.00;62537.16;5050506;28;20235;-84
2022/10/08 08:26:16;;;;;;;;;;;13.20;76.00;;;-151.14;100.00;62537.16;5068022;28;20307;-83
2022/10/08 08:28:44;;;;;;;;;;;13.20;76.00;;;-151.14;100.00;62537.16;5051302;28;19921;-84
2022/10/08 08:31:13;;;;;;;;;;;13.20;76.00;;;-151.14;100.00;62537.16;5051140;28;19921;-83
2022/10/08 08:33:42;;;;;;;;;;;13.20;76.00;;;-151.14;100.00;62537.16;5067198;28;19921;-84
2022/10/08 08:36:10;;;;;;;;;;;13.20;76.00;;;-151.14;100.00;62537.16;5052141;28;19921;-84
2022/10/08 08:38:38;;;;;;;;;;;13.20;76.00;;;-151.14;100.00;62537.16;5034095;28;19925;-84
2022/10/08 08:41:08;;;;;;;;;;;13.20;76.00;;;-151.14;100.00;62537.16;5050885;28;19921;-84
2022/10/08 08:43:36;;;;;;;;;;;13.20;76.00;;;-151.14;100.00;62537.16;5051345;28;20114;-84
2022/10/08 08:46:04;;;;;;;;;;;13.20;76.10;;;-151.14;100.00;62537.16;5052089;28;19943;-84
2022/10/08 08:48:33;;;;;;;;;;;13.20;76.10;;;-151.14;100.00;62537.16;5050653;28;19943;-83
2022/10/08 08:51:03;;;;;;;;;;;13.20;76.20;;;-151.14;100.00;62537.16;5050614;28;19921;-84
2022/10/08 08:53:31;;;;;;;;;;;13.20;76.10;;;-151.14;100.00;62537.16;5033895;28;19927;-84
2022/10/08 08:55:59;;;;;;;;;;;13.20;76.20;;;12.21;100.00;62537.16;5067326;28;19921;-84
2022/10/08 08:58:33;;;;;;;;;;;13.20;76.10;;;-151.14;100.00;62537.16;5050528;28;19928;-84
2022/10/08 09:01:05;;;;;;;;;;;13.20;76.10;;;-151.14;100.00;62537.16;5034114;28;19920;-84
2022/10/08 09:03:34;;;;;;;;;;;13.20;76.10;;;-151.14;100.00;62537.16;5051208;28;20128;-84
2022/10/08 09:06:08;;;;;;;;;;;13.20;76.10;;;18.08;100.00;62537.16;5034072;28;19921;-84
2022/10/08 09:08:37;;;;;;;;;;;13.20;76.10;;;12.18;100.00;62537.16;5047936;28;19921;-84
2022/10/08 09:11:06;;;;;;;;;;;13.20;76.10;;;-151.14;100.00;62537.16;5030685;28;20118;-85
2022/10/08 09:13:36;;;;;;;;;;;13.20;76.10;;;-151.14;100.00;62537.16;5030008;28;19929;-85
2022/10/08 09:16:04;;;;;;;;;;;13.20;76.10;;;-151.14;100.00;62537.16;5014288;28;20239;-84
2022/10/08 09:18:32;;;;;;;;;;;13.20;76.10;;;-151.14;100.00;62537.16;5030385;28;20213;-84
2022/10/08 09:21:04;;;;;;;;;;;13.20;76.20;;;12.13;100.00;62537.16;5030938;28;20835;-84
2022/10/08 09:23:32;;;;;;;;;;;13.10;76.20;;;-151.14;100.00;62537.16;5030961;28;19928;-84
2022/10/08 09:26:02;;;;;;;;;;;13.10;76.30;;;-151.14;100.00;62537.16;5030481;28;19922;-84
2022/10/08 09:28:41;;;;;;;;;;;13.10;76.20;;;-151.14;100.00;62537.16;5013868;28;20094;-84
2022/10/08 09:31:28;;;;;;;;;;;13.10;76.30;;;-151.14;100.00;62537.16;5030268;28;20209;-84
2022/10/08 09:34:05;;;;;;;;;;;13.10;76.30;;;12.07;100.00;62537.16;5029775;28;19936;-84
2022/10/08 09:36:36;;;;;;;;;;;13.10;76.30;;;12.07;100.00;62537.16;5030191;28;20120;-84
2022/10/08 09:39:05;;;;;;;;;;;13.10;76.30;;;12.07;100.00;62537.16;5031480;28;19921;-84
2022/10/08 09:41:34;;;;;;;;;;;13.10;76.40;;;12.07;100.00;62537.16;5013671;28;19928;-84
2022/10/08 09:44:11;;;;;;;;;;;13.10;76.40;;;12.07;100.00;62537.16;5013151;28;20205;-84
2022/10/08 09:46:39;;;;;;;;;;;13.10;76.40;;;12.07;100.00;62537.16;5029968;28;19921;-84
2022/10/08 09:49:27;;;;;;;;;;;13.00;76.30;;;12.07;100.00;62537.16;5030529;28;19927;-85
2022/10/08 09:51:57;;;;;;;;;;;13.10;76.40;;;12.07;100.00;62537.16;5017231;28;19921;-85
2022/10/08 09:54:26;;;;;;;;;;;13.10;76.50;;;12.07;100.00;62537.16;5033190;28;19920;-84
2022/10/08 09:56:55;;;;;;;;;;;13.10;76.50;;;12.07;100.00;82781.00;5034657;28;19928;-84
2022/10/08 09:59:25;;;;;;;;;;;13.10;76.50;;;12.05;100.00;62537.16;5017104;28;19927;-84
2022/10/08 10:01:53;;;;;;;;;;;13.00;76.40;;;12.05;100.00;62537.16;5033543;28;19928;-84
2022/10/08 10:04:30;;;;;;;;;;;13.00;76.50;;;12.05;100.00;62537.16;5032841;28;19921;-84
2022/10/08 10:06:59;;;;;;;;;;;13.00;76.50;;;12.05;100.00;62537.16;5033322;28;19921;-84
2022/10/08 10:09:34;;;;;;;;;;;13.00;76.50;;;12.05;100.00;62537.16;5016936;28;19921;-84
2022/10/08 10:12:04;;;;;;;;;;;13.00;76.60;;;12.05;100.00;82782.06;5016946;28;20220;-84
2022/10/08 10:14:36;;;;;;;;;;;13.00;76.60;;;12.01;100.00;82771.78;5032538;28;19921;-84
2022/10/08 10:17:06;;;;;;;;;;;13.00;76.60;;;11.97;100.00;82767.50;5016741;28;19921;-84
2022/10/08 10:19:37;;;;;;;;;;;13.00;76.70;;;11.96;100.00;82765.72;5016521;28;19921;-84
2022/10/08 10:22:10;;;;;;;;;;;13.00;76.80;;;11.95;100.00;62537.16;5033296;28;19921;-84
2022/10/08 10:24:48;;;;;;;;;;;13.00;76.80;;;11.95;100.00;62537.16;5032381;28;20278;-84
2022/10/08 10:27:19;;;;;;;;;;;13.00;76.80;;;11.95;100.00;62537.16;5033135;28;19921;-84
2022/10/08 10:29:51;;;;;;;;;;;12.90;76.90;;;11.95;100.00;62537.16;5032966;28;19921;-84
2022/10/08 10:32:20;;;;;;;;;;;13.00;76.80;;;11.95;100.00;82763.97;5033158;28;20227;-84
2022/10/08 10:34:55;;;;;;;;;;;13.00;76.90;;;11.95;100.00;82764.66;5032345;28;20115;-84
2022/10/08 10:37:30;;;;;;;;;;;13.00;76.90;;;11.93;100.00;62537.16;5034138;28;19921;-84
2022/10/08 10:40:06;;;;;;;;;;;12.90;77.00;;;11.93;100.00;62537.16;5032543;28;20251;-85
2022/10/08 10:42:36;;;;;;;;;;;13.00;77.00;;;11.93;100.00;62537.16;5032877;28;19927;-84
2022/10/08 10:45:09;;;;;;;;;;;13.00;77.10;;;11.93;100.00;62537.16;5033358;28;19921;-84
2022/10/08 10:47:37;;;;;;;;;;;13.00;77.10;;;11.93;100.00;62537.16;5016218;28;19921;-84
2022/10/08 10:50:07;;;;;;;;;;;13.00;77.10;;;11.93;100.00;62537.16;5017094;28;20098;-84
2022/10/08 10:52:47;;;;;;;;;;;12.90;77.20;;;11.93;100.00;62537.16;5053622;28;19921;-84
2022/10/08 10:55:21;;;;;;;;;;;12.90;77.20;;;11.93;100.00;62537.16;5051936;28;20120;-84
2022/10/08 10:58:17;;;;;;;;;;;13.00;77.20;;;11.93;100.00;62537.16;5035814;28;19927;-84
2022/10/08 11:00:50;;;;;;;;;;;12.90;77.20;;;11.93;100.00;82761.84;5006325;28;19921;-84
2022/10/08 11:03:21;;;;;;;;;;;12.90;77.20;;;11.90;100.00;82757.59;5035276;28;20124;-85
2022/10/08 11:05:51;;;;;;;;;;;12.90;77.20;;;11.86;100.00;82751.94;5052556;28;19920;-85
2022/10/08 11:08:31;;;;;;;;;;;12.90;77.40;;;11.86;100.00;62537.16;5035594;28;19920;-84
2022/10/08 11:11:07;;;;;;;;;;;12.90;77.40;;;11.86;100.00;62537.16;5052155;28;19928;-84